createdAt,value
2023-03-06T00:00:40.677Z,40.20
2023-03-06T00:03:07.934Z,32.95
2023-03-06T00:05:35.024Z,45.55
2023-03-06T00:08:02.639Z,35.47
2023-03-06T00:10:31.261Z,30.02
2023-03-06T00:13:00.935Z,32.10
2023-03-06T00:15:28.836Z,35.50
2023-03-06T00:17:57.613Z,39.10
2023-03-06T00:20:26.315Z,48.88
2023-03-06T00:22:55.300Z,42.75
2023-03-06T00:25:22.390Z,33.80
2023-03-06T00:27:49.965Z,39.33
2023-03-06T00:30:20.907Z,33.97
2023-03-06T00:32:50.458Z,30.98
2023-03-06T00:35:18.123Z,31.27
2023-03-06T00:37:45.226Z,36.78
2023-03-06T00:40:15.293Z,33.00
2023-03-06T00:42:42.488Z,30.75
2023-03-06T00:45:10.032Z,31.25
2023-03-06T00:47:37.741Z,27.52
2023-03-06T00:50:05.707Z,26.70
2023-03-06T00:52:32.528Z,27.05
2023-03-06T00:54:59.881Z,31.58
2023-03-06T00:57:26.760Z,21.73
2023-03-06T00:59:53.615Z,28.95
2023-03-06T01:02:20.566Z,27.33
2023-03-06T01:04:47.810Z,22.50
2023-03-06T01:07:14.609Z,25.52
2023-03-06T01:09:41.653Z,26.08
2023-03-06T01:12:08.682Z,20.90
2023-03-06T01:14:35.719Z,25.58
2023-03-06T01:17:02.582Z,21.90
2023-03-06T01:19:29.763Z,19.30
2023-03-06T01:21:56.975Z,19.17
2023-03-06T01:24:25.818Z,26.88
2023-03-06T01:26:53.164Z,26.67
2023-03-06T01:29:20.954Z,29.55
2023-03-06T01:31:48.244Z,22.35
2023-03-06T01:34:15.530Z,28.33
2023-03-06T01:36:42.352Z,22.00
2023-03-06T01:39:09.155Z,25.73
2023-03-06T01:41:36.270Z,20.23
2023-03-06T01:44:03.440Z,30.48
2023-03-06T01:46:34.621Z,29.80
2023-03-06T01:49:24.919Z,25.20
2023-03-06T01:51:57.752Z,31.45
2023-03-06T01:54:27.330Z,30.08
2023-03-06T01:57:00.524Z,22.20
2023-03-06T01:59:28.667Z,23.83
2023-03-06T02:01:57.188Z,27.63
2023-03-06T02:04:25.020Z,28.95
2023-03-06T02:06:52.391Z,26.92
2023-03-06T02:09:19.504Z,22.65
2023-03-06T02:11:46.896Z,22.90
2023-03-06T02:14:16.419Z,25.23
2023-03-06T02:16:43.724Z,28.00
2023-03-06T02:19:37.519Z,27.45
2023-03-06T02:22:04.533Z,23.75
2023-03-06T02:24:50.191Z,21.40
2023-03-06T02:27:18.827Z,20.75
2023-03-06T02:29:45.976Z,23.13
2023-03-06T02:32:12.960Z,23.92
2023-03-06T02:34:39.775Z,19.02
2023-03-06T02:37:10.878Z,21.52
2023-03-06T02:39:43.023Z,23.98
2023-03-06T02:42:10.082Z,21.73
2023-03-06T02:44:37.418Z,26.63
2023-03-06T02:47:04.355Z,29.33
2023-03-06T02:49:31.232Z,25.45
2023-03-06T02:51:58.062Z,21.20
2023-03-06T02:54:24.916Z,21.52
2023-03-06T02:56:51.771Z,17.75
2023-03-06T02:59:19.035Z,20.33
2023-03-06T03:01:47.782Z,27.77
2023-03-06T03:04:14.739Z,30.10
2023-03-06T03:06:41.555Z,24.40
2023-03-06T03:09:08.807Z,21.88
2023-03-06T03:11:35.659Z,20.40
2023-03-06T03:14:02.511Z,23.42
2023-03-06T03:16:29.747Z,22.55
2023-03-06T03:18:57.016Z,17.92
2023-03-06T03:21:24.031Z,26.45
2023-03-06T03:23:50.890Z,21.35
2023-03-06T03:26:20.580Z,21.17
2023-03-06T03:28:47.383Z,28.10
2023-03-06T03:31:14.559Z,18.38
2023-03-06T03:33:41.721Z,21.65
2023-03-06T03:36:09.185Z,26.48
2023-03-06T03:38:36.605Z,20.17
2023-03-06T03:41:04.772Z,22.45
2023-03-06T03:43:32.331Z,16.75
2023-03-06T03:45:59.252Z,25.85
2023-03-06T03:48:26.214Z,20.50
2023-03-06T03:50:53.224Z,17.17
2023-03-06T03:53:20.066Z,24.55
2023-03-06T03:55:48.498Z,26.55
2023-03-06T03:58:15.769Z,17.23
2023-03-06T04:00:42.649Z,19.48
2023-03-06T04:03:09.819Z,16.33
2023-03-06T04:05:36.786Z,18.70
2023-03-06T04:08:04.329Z,22.30
2023-03-06T04:10:32.333Z,19.48
2023-03-06T04:12:59.226Z,17.75
2023-03-06T04:15:26.678Z,16.30
2023-03-06T04:17:53.966Z,17.23
2023-03-06T04:20:20.860Z,17.63
2023-03-06T04:22:48.240Z,19.80
2023-03-06T04:25:15.455Z,18.13
2023-03-06T04:27:42.700Z,21.02
2023-03-06T04:30:10.672Z,17.23
2023-03-06T04:32:37.559Z,17.20
2023-03-06T04:35:05.029Z,17.20
2023-03-06T04:37:31.896Z,21.35
2023-03-06T04:39:58.765Z,15.82
2023-03-06T04:42:25.606Z,17.80
2023-03-06T04:44:52.611Z,23.13
2023-03-06T04:47:20.395Z,19.27
2023-03-06T04:49:47.482Z,21.02
2023-03-06T04:52:14.336Z,19.73
2023-03-06T04:54:41.160Z,19.60
2023-03-06T04:57:08.373Z,17.10
2023-03-06T04:59:36.922Z,19.77
2023-03-06T05:02:05.687Z,42.05
2023-03-06T05:04:32.523Z,30.27
2023-03-06T05:06:59.721Z,30.95
2023-03-06T05:09:26.913Z,28.75
2023-03-06T05:11:53.799Z,28.83
2023-03-06T05:14:20.664Z,27.90
2023-03-06T05:16:47.581Z,33.15
2023-03-06T05:19:14.459Z,21.20
2023-03-06T05:21:41.248Z,31.15
2023-03-06T05:24:09.461Z,26.92
2023-03-06T05:26:36.652Z,25.35
2023-03-06T05:29:03.661Z,33.38
2023-03-06T05:31:30.643Z,26.70
2023-03-06T05:33:58.343Z,25.48
2023-03-06T05:36:25.689Z,24.42
2023-03-06T05:38:53.059Z,24.33
2023-03-06T05:41:20.411Z,24.02
2023-03-06T05:43:47.210Z,29.58
2023-03-06T05:46:14.232Z,31.38
2023-03-06T05:48:41.539Z,34.00
2023-03-06T05:51:08.338Z,37.88
2023-03-06T05:53:35.187Z,25.05
2023-03-06T05:56:05.186Z,25.80
2023-03-06T05:58:33.004Z,22.35
2023-03-06T06:01:00.131Z,21.80
2023-03-06T06:03:27.338Z,28.40
2023-03-06T06:05:54.234Z,34.10
2023-03-06T06:08:21.354Z,28.42
2023-03-06T06:10:53.271Z,26.92
2023-03-06T06:13:20.313Z,30.55
2023-03-06T06:15:47.190Z,34.90
2023-03-06T06:18:14.012Z,34.63
2023-03-06T06:20:41.032Z,80.70
2023-03-06T06:23:10.248Z,42.15
2023-03-06T06:25:37.655Z,35.67
2023-03-06T06:28:05.675Z,38.85
2023-03-06T06:30:33.557Z,28.70
2023-03-06T06:33:00.584Z,33.85
2023-03-06T06:35:27.807Z,28.10
2023-03-06T06:37:55.096Z,30.88
2023-03-06T06:40:24.349Z,26.88
2023-03-06T06:42:52.779Z,28.05
2023-03-06T06:45:19.710Z,33.83
2023-03-06T06:47:49.888Z,39.05
2023-03-06T06:50:16.794Z,34.88
2023-03-06T06:52:43.966Z,38.53
2023-03-06T06:55:12.274Z,39.70
2023-03-06T06:57:41.054Z,30.58
2023-03-06T07:00:09.257Z,31.90
2023-03-06T07:02:36.032Z,34.85
2023-03-06T07:05:04.978Z,36.40
2023-03-06T07:07:36.669Z,36.33
2023-03-06T07:10:12.809Z,32.78
2023-03-06T07:12:40.312Z,33.17
2023-03-06T07:15:08.223Z,37.28
2023-03-06T07:17:35.097Z,44.00
2023-03-06T07:20:02.437Z,33.28
2023-03-06T07:22:33.873Z,31.42
2023-03-06T07:25:09.192Z,36.92
2023-03-06T07:27:36.070Z,35.13
2023-03-06T07:30:03.807Z,39.05
2023-03-06T07:32:30.758Z,45.55
2023-03-06T07:35:17.164Z,33.65
2023-03-06T07:37:44.797Z,31.85
2023-03-06T07:40:12.495Z,34.63
2023-03-06T07:42:39.387Z,36.83
2023-03-06T07:45:08.733Z,35.97
2023-03-06T07:47:35.623Z,36.08
2023-03-06T07:50:07.357Z,39.78
2023-03-06T07:52:34.984Z,44.15
2023-03-06T07:55:01.892Z,40.30
2023-03-06T07:57:28.677Z,36.38
2023-03-06T07:59:55.601Z,39.80
2023-03-06T08:02:22.453Z,34.97
2023-03-06T08:04:53.640Z,33.22
2023-03-06T08:07:21.304Z,36.55
2023-03-06T08:09:49.084Z,37.50
2023-03-06T08:12:16.751Z,30.10
2023-03-06T08:14:43.832Z,44.25
2023-03-06T08:17:10.744Z,38.90
2023-03-06T08:19:38.054Z,34.03
2023-03-06T08:22:06.394Z,29.60
2023-03-06T08:24:34.595Z,39.10
2023-03-06T08:27:01.896Z,39.92
2023-03-06T08:29:30.207Z,34.50
2023-03-06T08:31:57.808Z,35.40
2023-03-06T08:34:25.858Z,36.40
2023-03-06T08:36:52.858Z,39.97
2023-03-06T08:39:20.985Z,30.73
2023-03-06T08:41:48.274Z,30.63
2023-03-06T08:44:16.840Z,37.10
2023-03-06T08:46:43.596Z,26.50
2023-03-06T08:49:12.793Z,32.97
2023-03-06T08:51:39.979Z,30.52
2023-03-06T08:54:07.478Z,26.85
2023-03-06T08:56:34.748Z,28.63
2023-03-06T08:59:03.932Z,29.48
2023-03-06T09:01:34.696Z,33.25
2023-03-06T09:04:04.540Z,39.53
2023-03-06T09:06:34.214Z,26.95
2023-03-06T09:09:01.858Z,29.65
2023-03-06T09:11:29.869Z,25.85
2023-03-06T09:13:57.668Z,23.55
2023-03-06T09:16:25.496Z,25.70
2023-03-06T09:18:54.023Z,23.77
2023-03-06T09:21:22.561Z,30.35
2023-03-06T09:23:49.728Z,32.65
2023-03-06T09:26:16.849Z,33.22
2023-03-06T09:28:44.317Z,36.20
2023-03-06T09:31:13.359Z,31.58
2023-03-06T09:33:40.789Z,29.98
2023-03-06T09:36:11.415Z,31.92
2023-03-06T09:38:38.262Z,35.40
2023-03-06T09:41:13.894Z,29.65
2023-03-06T09:43:45.421Z,31.95
2023-03-06T09:46:31.238Z,27.45
2023-03-06T09:49:23.151Z,30.00
2023-03-06T09:52:23.472Z,22.77
2023-03-06T09:55:09.065Z,22.92
2023-03-06T09:57:51.190Z,29.38
2023-03-06T10:00:45.366Z,29.73
2023-03-06T10:03:34.546Z,23.85
2023-03-06T10:06:02.717Z,27.50
2023-03-06T10:09:00.730Z,28.10
2023-03-06T10:12:03.966Z,28.63
2023-03-06T10:14:48.925Z,21.67
2023-03-06T10:17:23.979Z,21.85
2023-03-06T10:19:51.927Z,22.25
2023-03-06T10:22:28.433Z,25.58
2023-03-06T10:25:01.524Z,25.33
2023-03-06T10:27:49.729Z,18.55
2023-03-06T10:30:43.593Z,6.35
2023-03-06T10:33:35.569Z,5.57
2023-03-06T10:36:03.056Z,6.38
2023-03-06T10:38:37.566Z,3.90
2023-03-06T10:41:08.549Z,6.00
2023-03-06T10:43:36.599Z,6.45
2023-03-06T10:46:05.395Z,3.90
2023-03-06T10:48:36.013Z,3.70
2023-03-06T10:51:24.510Z,5.60
2023-03-06T10:54:01.207Z,4.15
2023-03-06T10:56:37.055Z,3.65
2023-03-06T10:59:18.886Z,4.82
2023-03-06T11:01:57.757Z,2.92
2023-03-06T11:04:34.524Z,4.78
2023-03-06T11:07:04.405Z,5.07
2023-03-06T11:09:33.205Z,3.80
2023-03-06T11:12:24.079Z,3.70
2023-03-06T11:15:17.846Z,2.75
2023-03-06T11:18:01.839Z,3.78
2023-03-06T11:20:51.564Z,3.75
2023-03-06T11:23:31.930Z,4.68
2023-03-06T11:26:08.085Z,4.72
2023-03-06T11:28:42.453Z,4.20
2023-03-06T11:31:18.941Z,4.00
2023-03-06T11:34:19.813Z,3.65
2023-03-06T11:36:54.421Z,5.00
2023-03-06T11:39:29.526Z,6.85
2023-03-06T11:42:11.221Z,6.13
2023-03-06T11:44:43.782Z,5.05
2023-03-06T11:47:23.885Z,3.10
2023-03-06T11:50:21.974Z,6.40
2023-03-06T11:52:51.406Z,4.63
2023-03-06T11:55:43.358Z,5.55
2023-03-06T11:58:19.657Z,7.72
2023-03-06T12:01:08.791Z,6.00
2023-03-06T12:03:59.387Z,5.78
2023-03-06T12:06:42.251Z,5.53
2023-03-06T12:09:29.296Z,5.57
2023-03-06T12:12:19.215Z,5.93
2023-03-06T12:15:08.959Z,7.05
2023-03-06T12:17:47.072Z,5.30
2023-03-06T12:20:53.032Z,5.20
2023-03-06T12:23:55.192Z,4.90
2023-03-06T12:26:37.380Z,4.93
2023-03-06T12:29:44.350Z,5.55
2023-03-06T12:32:48.905Z,15.13
2023-03-06T12:35:38.957Z,6.38
2023-03-06T12:38:20.876Z,9.20
2023-03-06T12:41:12.597Z,9.70
2023-03-06T12:43:58.909Z,13.18
2023-03-06T12:46:30.678Z,12.73
2023-03-06T12:49:11.176Z,12.32
2023-03-06T12:51:39.869Z,10.38
2023-03-06T12:54:14.005Z,15.75
2023-03-06T12:56:45.224Z,7.32
2023-03-06T12:59:37.219Z,11.27
2023-03-06T13:02:30.459Z,6.25
2023-03-06T13:05:31.505Z,7.93
2023-03-06T13:08:15.339Z,7.05
2023-03-06T13:10:46.438Z,4.85
2023-03-06T13:13:32.575Z,12.48
2023-03-06T13:16:30.845Z,5.72
2023-03-06T13:19:04.252Z,4.10
2023-03-06T13:21:46.452Z,4.55
2023-03-06T13:24:24.816Z,4.50
2023-03-06T13:27:10.952Z,4.53
2023-03-06T13:29:38.165Z,6.07
2023-03-06T13:32:13.879Z,8.13
2023-03-06T13:34:50.058Z,5.97
2023-03-06T13:37:17.031Z,8.93
2023-03-06T13:39:56.942Z,13.18
2023-03-06T13:42:36.250Z,8.32
2023-03-06T13:45:25.055Z,6.85
2023-03-06T13:48:29.979Z,6.70
2023-03-06T13:50:49.150Z,6.18
2023-03-06T13:53:18.917Z,6.75
2023-03-06T13:56:06.986Z,7.55
2023-03-06T13:58:56.881Z,4.60
2023-03-06T14:01:34.261Z,4.55
2023-03-06T14:04:01.153Z,5.47
2023-03-06T14:06:44.481Z,7.53
2023-03-06T14:09:35.759Z,5.60
2023-03-06T14:12:07.863Z,7.25
2023-03-06T14:14:45.653Z,8.52
2023-03-06T14:17:29.440Z,5.90
2023-03-06T14:20:18.636Z,6.75
2023-03-06T14:22:45.723Z,5.55
2023-03-06T14:25:28.367Z,7.00
2023-03-06T14:28:02.901Z,8.35
2023-03-06T14:30:32.633Z,8.45
2023-03-06T14:32:59.899Z,9.40
2023-03-06T14:35:29.755Z,11.77
2023-03-06T14:38:02.916Z,7.10
2023-03-06T14:40:34.992Z,8.10
2023-03-06T14:43:11.399Z,14.00
2023-03-06T14:45:52.732Z,9.57
2023-03-06T14:48:20.573Z,13.00
2023-03-06T14:50:54.745Z,23.77
2023-03-06T14:53:24.320Z,23.05
2023-03-06T14:55:55.997Z,16.65
2023-03-06T14:58:35.692Z,18.63
2023-03-06T15:01:11.027Z,14.15
2023-03-06T15:03:52.683Z,16.63
2023-03-06T15:06:23.035Z,16.38
2023-03-06T15:09:01.877Z,16.67
2023-03-06T15:12:05.288Z,15.30
2023-03-06T15:14:59.569Z,17.75
2023-03-06T15:17:29.211Z,28.00
2023-03-06T15:20:00.649Z,36.55
2023-03-06T15:22:38.742Z,32.90
2023-03-06T15:25:19.857Z,23.48
2023-03-06T15:28:20.234Z,23.67
2023-03-06T15:31:22.102Z,23.33
2023-03-06T15:34:09.171Z,32.15
2023-03-06T15:36:44.479Z,27.95
2023-03-06T15:39:32.982Z,28.77
2023-03-06T15:42:04.014Z,34.72
2023-03-06T15:44:32.865Z,26.92
2023-03-06T15:47:08.392Z,23.85
2023-03-06T15:49:38.251Z,23.25
2023-03-06T15:52:11.371Z,24.15
2023-03-06T15:54:38.300Z,37.13
2023-03-06T15:57:08.145Z,32.45
2023-03-06T15:59:43.988Z,24.02
2023-03-06T16:02:19.719Z,22.15
2023-03-06T16:04:47.906Z,21.13
2023-03-06T16:07:15.523Z,35.67
2023-03-06T16:09:42.849Z,46.08
2023-03-06T16:12:20.108Z,25.42
2023-03-06T16:14:48.296Z,23.35
2023-03-06T16:17:15.976Z,33.22
2023-03-06T16:19:43.382Z,32.75
2023-03-06T16:22:10.694Z,28.77
2023-03-06T16:24:39.690Z,25.70
2023-03-06T16:27:07.026Z,23.55
2023-03-06T16:29:35.181Z,40.60
2023-03-06T16:32:02.260Z,23.83
2023-03-06T16:34:29.269Z,21.90
2023-03-06T16:36:56.220Z,21.77
2023-03-06T16:39:24.481Z,21.23
2023-03-06T16:41:51.759Z,21.63
2023-03-06T16:44:19.281Z,21.83
2023-03-06T16:46:48.012Z,19.55
2023-03-06T16:49:17.756Z,14.38
2023-03-06T16:51:45.336Z,11.68
2023-03-06T16:54:12.917Z,13.45
2023-03-06T16:56:39.865Z,22.33
2023-03-06T16:59:06.785Z,20.58
2023-03-06T17:01:34.320Z,20.83
2023-03-06T17:04:01.246Z,16.00
2023-03-06T17:06:28.415Z,16.90
2023-03-06T17:08:55.396Z,12.55
2023-03-06T17:11:22.874Z,13.07
2023-03-06T17:13:50.146Z,11.75
2023-03-06T17:16:17.190Z,15.02
2023-03-06T17:18:45.770Z,16.17
2023-03-06T17:21:15.644Z,12.43
2023-03-06T17:23:43.175Z,13.05
2023-03-06T17:26:15.632Z,12.95
2023-03-06T17:28:42.663Z,13.30
2023-03-06T17:31:19.431Z,14.30
2023-03-06T17:33:46.610Z,10.63
2023-03-06T17:36:14.756Z,16.63
2023-03-06T17:38:42.788Z,13.82
2023-03-06T17:41:11.970Z,14.48
2023-03-06T17:43:40.285Z,11.82
2023-03-06T17:46:10.188Z,17.20
2023-03-06T17:48:37.540Z,27.17
2023-03-06T17:51:05.541Z,34.85
2023-03-06T17:53:33.357Z,21.63
2023-03-06T17:56:02.443Z,29.83
2023-03-06T17:58:29.593Z,23.88
2023-03-06T18:00:56.489Z,23.85
2023-03-06T18:03:23.822Z,26.58
2023-03-06T18:06:01.428Z,28.75
2023-03-06T18:08:28.285Z,23.58
2023-03-06T18:11:04.173Z,34.72
2023-03-06T18:13:36.939Z,40.13
2023-03-06T18:16:04.556Z,37.97
2023-03-06T18:18:31.734Z,36.58
2023-03-06T18:21:02.761Z,42.42
2023-03-06T18:23:29.602Z,44.25
2023-03-06T18:26:09.795Z,61.80
2023-03-06T18:28:36.821Z,56.90
2023-03-06T18:31:08.415Z,48.47
2023-03-06T18:33:35.590Z,49.75
2023-03-06T18:36:03.678Z,41.20
2023-03-06T18:38:30.968Z,52.60
2023-03-06T18:40:58.245Z,44.22
2023-03-06T18:43:25.248Z,42.28
2023-03-06T18:45:58.569Z,40.35
2023-03-06T18:48:25.851Z,44.65
2023-03-06T18:50:52.772Z,57.28
2023-03-06T18:53:21.081Z,41.22
2023-03-06T18:55:50.962Z,43.20
2023-03-06T18:58:24.596Z,41.03
2023-03-06T19:00:51.897Z,39.53
2023-03-06T19:03:19.245Z,40.47
2023-03-06T19:05:48.902Z,32.17
2023-03-06T19:08:17.401Z,43.70
2023-03-06T19:10:50.041Z,38.17
2023-03-06T19:13:16.837Z,43.38
2023-03-06T19:15:45.934Z,53.88
2023-03-06T19:18:18.092Z,62.45
2023-03-06T19:20:45.317Z,96.82
2023-03-06T19:23:12.169Z,94.07
2023-03-06T19:25:39.513Z,99.80
2023-03-06T19:28:06.391Z,102.93
2023-03-06T19:30:33.894Z,112.07
2023-03-06T19:33:01.143Z,104.78
2023-03-06T19:35:28.047Z,102.18
2023-03-06T19:37:55.327Z,94.07
2023-03-06T19:40:22.292Z,81.30
2023-03-06T19:42:50.304Z,64.40
2023-03-06T19:45:17.357Z,53.08
2023-03-06T19:47:44.640Z,49.80
2023-03-06T19:50:11.683Z,50.58
2023-03-06T19:52:39.164Z,50.50
2023-03-06T19:55:06.716Z,50.08
2023-03-06T19:57:33.533Z,43.20
2023-03-06T20:00:01.848Z,56.60
2023-03-06T20:02:29.317Z,47.65
2023-03-06T20:04:56.210Z,46.85
2023-03-06T20:07:23.391Z,27.98
2023-03-06T20:09:50.382Z,34.20
2023-03-06T20:12:17.864Z,43.33
2023-03-06T20:14:46.241Z,34.33
2023-03-06T20:17:13.301Z,34.90
2023-03-06T20:19:40.879Z,31.30
2023-03-06T20:22:07.771Z,33.08
2023-03-06T20:24:34.986Z,37.83
2023-03-06T20:27:01.919Z,31.95
2023-03-06T20:29:28.799Z,27.50
2023-03-06T20:31:57.703Z,28.27
2023-03-06T20:34:25.814Z,29.52
2023-03-06T20:36:53.078Z,29.63
2023-03-06T20:39:27.853Z,29.88
2023-03-06T20:41:55.086Z,31.30
2023-03-06T20:44:23.248Z,38.47
2023-03-06T20:46:52.040Z,35.58
2023-03-06T20:49:19.782Z,34.97
2023-03-06T20:51:46.650Z,36.08
2023-03-06T20:54:18.505Z,22.00
2023-03-06T20:56:48.360Z,23.45
2023-03-06T20:59:15.757Z,22.85
2023-03-06T21:01:45.180Z,25.50
2023-03-06T21:04:14.025Z,27.58
2023-03-06T21:06:45.331Z,16.73
2023-03-06T21:09:14.006Z,14.07
2023-03-06T21:11:40.906Z,11.70
2023-03-06T21:14:07.769Z,11.95
2023-03-06T21:16:35.785Z,10.77
2023-03-06T21:19:03.254Z,14.13
2023-03-06T21:21:32.942Z,13.95
2023-03-06T21:24:00.548Z,16.73
2023-03-06T21:26:30.179Z,17.20
2023-03-06T21:29:00.778Z,16.25
2023-03-06T21:31:29.105Z,9.43
2023-03-06T21:33:57.097Z,11.35
2023-03-06T21:36:25.494Z,10.35
2023-03-06T21:38:53.361Z,15.82
2023-03-06T21:41:25.623Z,18.73
2023-03-06T21:43:57.180Z,20.85
2023-03-06T21:46:25.270Z,24.60
2023-03-06T21:48:53.477Z,24.65
2023-03-06T21:51:23.462Z,24.17
2023-03-06T21:53:51.575Z,18.98
2023-03-06T21:56:21.077Z,18.23
2023-03-06T21:58:49.061Z,17.10
2023-03-06T22:01:19.116Z,21.23
2023-03-06T22:03:46.138Z,34.28
2023-03-06T22:06:13.276Z,26.65
2023-03-06T22:08:40.846Z,30.25
2023-03-06T22:11:10.451Z,29.05
2023-03-06T22:13:38.028Z,30.02
2023-03-06T22:16:05.967Z,18.63
2023-03-06T22:18:33.761Z,18.55
2023-03-06T22:21:05.587Z,17.98
2023-03-06T22:23:32.473Z,18.58
2023-03-06T22:26:07.595Z,21.45
2023-03-06T22:28:35.309Z,20.92
2023-03-06T22:31:07.493Z,19.40
2023-03-06T22:33:34.838Z,21.95
2023-03-06T22:36:07.768Z,14.80
2023-03-06T22:38:42.290Z,13.77
2023-03-06T22:41:10.717Z,15.50
2023-03-06T22:43:37.956Z,13.80
2023-03-06T22:46:07.324Z,12.27
2023-03-06T22:48:34.438Z,10.23
2023-03-06T22:51:21.164Z,10.93
2023-03-06T22:53:48.922Z,12.50
2023-03-06T22:56:18.234Z,56.03
2023-03-06T22:58:45.290Z,16.30
2023-03-06T23:01:13.994Z,12.20
2023-03-06T23:03:43.241Z,17.92
2023-03-06T23:06:16.823Z,17.98
2023-03-06T23:08:48.389Z,24.70
2023-03-06T23:11:16.806Z,31.35
2023-03-06T23:13:43.618Z,32.33
2023-03-06T23:16:10.604Z,39.00
2023-03-06T23:18:38.711Z,33.88
2023-03-06T23:21:11.349Z,34.85
2023-03-06T23:23:39.228Z,29.48
2023-03-06T23:26:08.282Z,36.13
2023-03-06T23:28:35.216Z,30.60
2023-03-06T23:31:17.714Z,28.25
2023-03-06T23:33:44.654Z,28.20
2023-03-06T23:36:14.167Z,39.25
2023-03-06T23:38:41.936Z,35.63
2023-03-06T23:41:17.081Z,37.30
2023-03-06T23:43:45.036Z,52.72
2023-03-06T23:46:12.077Z,32.75
2023-03-06T23:48:40.692Z,29.45
2023-03-06T23:51:09.595Z,23.02
2023-03-06T23:53:36.813Z,22.02
2023-03-06T23:56:06.380Z,23.42
2023-03-06T23:58:33.812Z,24.15
